createdAt,value
2022-09-16T00:00:46.128Z,100083.78
2022-09-16T00:03:13.733Z,100087.94
2022-09-16T00:05:45.425Z,100091.72
2022-09-16T00:08:12.960Z,100090.09
2022-09-16T00:10:39.664Z,100092.22
2022-09-16T00:13:06.616Z,100088.06
2022-09-16T00:15:33.402Z,100088.56
2022-09-16T00:18:00.068Z,100096.09
2022-09-16T00:20:27.569Z,100095.03
2022-09-16T00:22:57.482Z,100092.09
2022-09-16T00:25:24.092Z,100090.50
2022-09-16T00:27:50.739Z,100081.72
2022-09-16T00:30:17.427Z,100075.66
2022-09-16T00:32:45.094Z,100056.94
2022-09-16T00:35:11.743Z,100056.34
2022-09-16T00:37:38.433Z,100058.06
2022-09-16T00:40:05.665Z,100048.31
2022-09-16T00:42:37.741Z,100038.81
2022-09-16T00:45:17.162Z,100034.25
2022-09-16T00:47:50.967Z,100022.69
2022-09-16T00:50:28.502Z,100025.91
2022-09-16T00:52:56.778Z,100026.00
2022-09-16T00:55:30.606Z,100020.00
2022-09-16T00:58:02.375Z,100020.84
2022-09-16T01:00:29.170Z,100016.66
2022-09-16T01:02:56.157Z,100007.78
2022-09-16T01:05:26.704Z,100002.25
2022-09-16T01:07:54.692Z,99982.84
2022-09-16T01:10:24.214Z,99984.00
2022-09-16T01:13:02.523Z,99976.69
2022-09-16T01:15:49.379Z,99976.69
2022-09-16T01:18:59.771Z,99970.16
2022-09-16T01:21:48.411Z,99962.41
2022-09-16T01:24:36.601Z,99961.56
2022-09-16T01:27:17.325Z,99960.81
2022-09-16T01:30:02.111Z,99949.50
2022-09-16T01:32:40.859Z,99950.59
2022-09-16T01:35:16.012Z,99945.31
2022-09-16T01:37:54.492Z,99939.66
2022-09-16T01:40:39.854Z,99932.56
2022-09-16T01:43:15.479Z,99920.13
2022-09-16T01:45:52.194Z,99924.56
2022-09-16T01:48:19.601Z,99918.25
2022-09-16T01:51:01.578Z,99908.88
2022-09-16T01:53:34.943Z,99902.97
2022-09-16T01:56:26.907Z,99909.53
2022-09-16T01:59:00.358Z,99907.56
2022-09-16T02:01:47.448Z,99903.22
2022-09-16T02:04:22.160Z,99886.13
2022-09-16T02:06:51.905Z,99885.44
2022-09-16T02:09:23.560Z,99879.28
2022-09-16T02:11:54.144Z,99885.06
2022-09-16T02:14:30.342Z,99880.75
2022-09-16T02:17:09.825Z,99872.50
2022-09-16T02:20:01.588Z,99866.06
2022-09-16T02:22:37.982Z,99866.53
2022-09-16T02:25:08.491Z,99858.59
2022-09-16T02:27:38.016Z,99854.72
2022-09-16T02:30:10.990Z,99851.63
2022-09-16T02:32:43.352Z,99848.91
2022-09-16T02:35:15.174Z,99838.78
2022-09-16T02:37:47.876Z,99831.38
2022-09-16T02:40:27.030Z,99836.06
2022-09-16T02:42:54.042Z,99832.63
2022-09-16T02:45:25.992Z,99826.66
2022-09-16T02:48:08.714Z,99826.84
2022-09-16T02:50:54.634Z,99827.56
2022-09-16T02:53:46.880Z,99833.19
2022-09-16T02:56:16.591Z,99825.03
2022-09-16T02:58:43.290Z,99822.03
2022-09-16T03:01:13.128Z,99825.84
2022-09-16T03:03:40.685Z,99819.25
2022-09-16T03:06:14.669Z,99825.94
2022-09-16T03:08:42.320Z,99819.50
2022-09-16T03:11:32.458Z,99823.22
2022-09-16T03:14:22.124Z,99827.34
2022-09-16T03:17:18.121Z,99846.59
2022-09-16T03:20:10.963Z,99847.47
2022-09-16T03:22:37.477Z,99848.72
2022-09-16T03:25:36.387Z,99853.28
2022-09-16T03:28:18.393Z,99855.16
2022-09-16T03:31:09.244Z,99859.22
2022-09-16T03:33:42.945Z,99865.53
2022-09-16T03:36:15.564Z,99863.66
2022-09-16T03:38:43.843Z,99851.44
2022-09-16T03:41:11.434Z,99860.56
2022-09-16T03:43:38.175Z,99860.69
2022-09-16T03:46:14.687Z,99852.69
2022-09-16T03:48:41.340Z,99856.22
2022-09-16T03:51:08.023Z,99862.75
2022-09-16T03:53:34.698Z,99861.44
2022-09-16T03:56:01.593Z,99866.25
2022-09-16T03:58:28.231Z,99862.69
2022-09-16T04:00:54.891Z,99868.38
2022-09-16T04:03:22.580Z,99873.66
2022-09-16T04:05:53.894Z,99871.81
2022-09-16T04:08:20.982Z,99874.75
2022-09-16T04:11:13.935Z,99870.16
2022-09-16T04:13:40.536Z,99874.22
2022-09-16T04:16:07.298Z,99871.22
2022-09-16T04:18:34.869Z,99876.66
2022-09-16T04:21:03.437Z,99874.16
2022-09-16T04:23:31.247Z,99883.47
2022-09-16T04:26:37.457Z,99880.03
2022-09-16T04:29:04.063Z,99889.50
2022-09-16T04:31:30.744Z,99887.38
2022-09-16T04:33:57.359Z,99890.34
2022-09-16T04:36:24.622Z,99905.13
2022-09-16T04:38:51.398Z,99900.09
2022-09-16T04:41:20.484Z,99896.19
2022-09-16T04:43:51.090Z,99910.00
2022-09-16T04:46:17.722Z,99904.00
2022-09-16T04:48:47.544Z,99914.97
2022-09-16T04:51:14.745Z,99910.94
2022-09-16T04:53:45.792Z,99907.50
2022-09-16T04:56:21.714Z,99913.03
2022-09-16T04:58:51.347Z,99913.72
2022-09-16T05:01:23.686Z,99917.69
2022-09-16T05:03:55.935Z,99918.25
2022-09-16T05:06:26.810Z,99915.28
2022-09-16T05:08:54.811Z,99914.69
2022-09-16T05:11:24.001Z,99927.38
2022-09-16T05:13:50.630Z,99929.59
2022-09-16T05:16:20.228Z,99933.38
2022-09-16T05:18:48.752Z,99926.78
2022-09-16T05:21:18.685Z,99927.38
2022-09-16T05:23:47.475Z,99931.53
2022-09-16T05:26:19.927Z,99933.88
2022-09-16T05:28:46.827Z,99936.44
2022-09-16T05:31:19.232Z,99937.16
2022-09-16T05:33:48.282Z,99940.50
2022-09-16T05:36:18.021Z,99940.75
2022-09-16T05:38:59.083Z,99950.88
2022-09-16T05:41:34.256Z,99939.63
2022-09-16T05:44:01.383Z,99949.28
2022-09-16T05:46:29.257Z,99949.00
2022-09-16T05:48:56.677Z,99946.03
2022-09-16T05:51:24.789Z,99949.38
2022-09-16T05:53:53.109Z,99945.50
2022-09-16T05:56:27.878Z,99945.97
2022-09-16T05:58:56.327Z,99949.75
2022-09-16T06:01:29.325Z,99948.09
2022-09-16T06:03:56.333Z,99939.00
2022-09-16T06:06:28.843Z,99946.56
2022-09-16T06:08:59.059Z,99933.63
2022-09-16T06:11:27.892Z,99936.25
2022-09-16T06:13:56.871Z,99950.03
2022-09-16T06:16:25.937Z,99966.78
2022-09-16T06:18:53.732Z,99986.72
2022-09-16T06:21:21.182Z,99987.28
2022-09-16T06:23:48.017Z,99989.22
2022-09-16T06:26:17.689Z,100003.66
2022-09-16T06:28:45.333Z,100002.66
2022-09-16T06:31:14.775Z,100004.22
2022-09-16T06:33:41.896Z,100005.41
2022-09-16T06:36:14.708Z,100018.63
2022-09-16T06:38:41.350Z,100020.50
2022-09-16T06:41:10.193Z,100024.09
2022-09-16T06:43:37.954Z,100027.06
2022-09-16T06:46:13.611Z,100027.56
2022-09-16T06:48:41.359Z,100009.34
2022-09-16T06:51:16.465Z,100002.31
2022-09-16T06:53:44.524Z,99993.13
2022-09-16T06:56:15.082Z,99979.81
2022-09-16T06:58:46.616Z,99958.84
2022-09-16T07:01:16.376Z,99956.06
2022-09-16T07:03:45.660Z,99941.41
2022-09-16T07:06:14.277Z,99919.72
2022-09-16T07:08:42.277Z,99911.47
2022-09-16T07:11:13.623Z,99909.34
2022-09-16T07:13:41.079Z,99902.59
2022-09-16T07:16:14.415Z,99896.97
2022-09-16T07:18:42.557Z,99910.75
2022-09-16T07:21:17.249Z,99898.69
2022-09-16T07:23:45.336Z,99892.13
2022-09-16T07:26:17.273Z,99894.97
2022-09-16T07:28:48.192Z,99890.34
2022-09-16T07:31:26.391Z,99882.84
2022-09-16T07:34:02.822Z,99893.06
2022-09-16T07:36:34.160Z,99891.31
2022-09-16T07:39:01.208Z,99899.00
2022-09-16T07:41:30.679Z,99901.75
2022-09-16T07:43:59.380Z,99901.75
2022-09-16T07:46:28.333Z,99900.31
2022-09-16T07:48:55.594Z,99903.34
2022-09-16T07:51:24.451Z,99909.50
2022-09-16T07:54:12.225Z,99905.19
2022-09-16T07:56:40.639Z,99906.06
2022-09-16T07:59:14.320Z,99928.13
2022-09-16T08:01:44.759Z,99931.59
2022-09-16T08:04:12.267Z,99944.19
2022-09-16T08:06:39.918Z,99935.88
2022-09-16T08:09:21.094Z,99942.91
2022-09-16T08:11:53.206Z,99946.00
2022-09-16T08:14:20.005Z,99949.66
2022-09-16T08:16:46.927Z,99973.22
2022-09-16T08:19:13.995Z,99978.91
2022-09-16T08:21:40.621Z,99993.19
2022-09-16T08:24:10.233Z,99998.19
2022-09-16T08:26:37.127Z,100004.53
2022-09-16T08:29:08.790Z,100002.97
2022-09-16T08:31:37.245Z,100009.84
2022-09-16T08:34:04.593Z,100017.41
2022-09-16T08:36:33.234Z,100027.88
2022-09-16T08:39:00.131Z,100020.88
2022-09-16T08:41:43.405Z,100025.84
2022-09-16T08:44:50.600Z,100035.97
2022-09-16T08:47:23.439Z,100044.25
2022-09-16T08:49:51.380Z,100049.94
2022-09-16T08:52:35.655Z,100057.13
2022-09-16T08:55:24.178Z,100059.22
2022-09-16T08:58:14.698Z,100062.31
2022-09-16T09:00:44.363Z,100061.63
2022-09-16T09:03:36.060Z,100052.13
2022-09-16T09:06:13.010Z,100052.19
2022-09-16T09:09:01.762Z,100057.69
2022-09-16T09:11:40.449Z,100056.63
2022-09-16T09:14:39.044Z,100057.22
2022-09-16T09:17:21.559Z,100053.19
2022-09-16T09:20:13.011Z,100056.84
2022-09-16T09:22:57.944Z,100051.69
2022-09-16T09:25:58.050Z,100068.75
2022-09-16T09:28:39.946Z,100059.69
2022-09-16T09:31:41.095Z,100055.06
2022-09-16T09:34:38.397Z,100061.94
2022-09-16T09:37:39.366Z,100063.28
2022-09-16T09:40:09.609Z,100063.03
2022-09-16T09:42:45.869Z,100036.78
2022-09-16T09:45:41.429Z,100046.56
2022-09-16T09:48:24.541Z,100050.50
2022-09-16T09:50:52.915Z,100043.06
2022-09-16T09:53:25.315Z,100054.91
2022-09-16T09:56:06.378Z,100065.41
2022-09-16T09:58:42.958Z,100081.22
2022-09-16T10:01:11.483Z,100088.88
2022-09-16T10:03:40.228Z,100072.16
2022-09-16T10:06:07.452Z,100063.78
2022-09-16T10:08:48.130Z,100063.13
2022-09-16T10:11:18.594Z,100046.63
2022-09-16T10:13:55.675Z,100052.13
2022-09-16T10:16:28.533Z,100037.00
2022-09-16T10:18:59.719Z,100039.38
2022-09-16T10:21:37.583Z,100013.69
2022-09-16T10:24:04.427Z,100012.06
2022-09-16T10:26:39.470Z,100009.69
2022-09-16T10:29:19.576Z,100016.16
2022-09-16T10:31:46.877Z,100015.78
2022-09-16T10:34:26.010Z,100025.72
2022-09-16T10:37:18.064Z,100031.25
2022-09-16T10:39:54.616Z,100041.03
2022-09-16T10:42:26.043Z,100032.50
2022-09-16T10:44:56.780Z,100025.84
2022-09-16T10:47:30.158Z,100015.34
2022-09-16T10:50:04.869Z,100029.09
2022-09-16T10:52:40.992Z,100037.78
2022-09-16T10:55:50.840Z,100047.47
2022-09-16T10:58:20.716Z,100057.09
2022-09-16T11:01:02.149Z,100052.47
2022-09-16T11:03:32.293Z,100039.28
2022-09-16T11:06:23.114Z,100029.91
2022-09-16T11:09:19.302Z,100024.63
2022-09-16T11:12:01.051Z,100008.53
2022-09-16T11:14:48.016Z,100007.28
2022-09-16T11:17:33.707Z,100025.22
2022-09-16T11:20:12.710Z,100020.72
2022-09-16T11:22:46.593Z,100009.34
2022-09-16T11:25:30.807Z,99979.41
2022-09-16T11:27:57.564Z,99960.44
2022-09-16T11:30:24.488Z,99942.44
2022-09-16T11:35:59.564Z,99894.75
2022-09-16T11:38:46.413Z,99865.88
2022-09-16T11:41:35.474Z,99833.53
2022-09-16T11:44:22.510Z,99811.84
2022-09-16T11:47:08.446Z,99787.81
2022-09-16T11:49:58.343Z,99779.75
2022-09-16T11:52:43.190Z,99762.47
2022-09-16T11:55:27.162Z,99762.38
2022-09-16T11:58:03.720Z,99778.59
2022-09-16T12:00:33.947Z,99772.31
2022-09-16T12:03:06.107Z,99776.97
2022-09-16T12:05:43.709Z,99779.88
2022-09-16T12:08:29.911Z,99776.56
2022-09-16T12:11:44.873Z,99760.47
2022-09-16T12:14:27.674Z,99735.53
2022-09-16T12:16:59.456Z,99727.75
2022-09-16T12:19:38.254Z,99722.41
2022-09-16T12:22:13.680Z,99727.22
2022-09-16T12:24:57.783Z,99737.56
2022-09-16T12:27:34.947Z,99741.75
2022-09-16T12:30:23.718Z,99728.16
2022-09-16T12:33:29.268Z,99716.66
2022-09-16T12:36:05.564Z,99698.38
2022-09-16T12:38:32.565Z,99666.56
2022-09-16T12:41:09.283Z,99640.28
2022-09-16T12:43:46.259Z,99634.56
2022-09-16T12:46:38.063Z,99635.59
2022-09-16T12:49:37.555Z,99625.75
2022-09-16T12:52:26.821Z,99612.53
2022-09-16T12:55:23.341Z,99632.50
2022-09-16T12:57:58.967Z,99632.84
2022-09-16T13:00:36.301Z,99635.03
2022-09-16T13:03:14.102Z,99650.75
2022-09-16T13:05:47.623Z,99652.72
2022-09-16T13:08:26.211Z,99647.56
2022-09-16T13:14:22.877Z,99659.97
2022-09-16T13:16:56.243Z,99659.78
2022-09-16T13:19:26.204Z,99669.25
2022-09-16T13:22:00.142Z,99658.91
2022-09-16T13:24:48.241Z,99655.34
2022-09-16T13:27:34.505Z,99639.88
2022-09-16T13:30:13.445Z,99633.88
2022-09-16T13:32:44.531Z,99634.13
2022-09-16T13:35:23.306Z,99603.59
2022-09-16T13:37:55.371Z,99599.63
2022-09-16T13:40:28.035Z,99584.84
2022-09-16T13:43:10.053Z,99562.56
2022-09-16T13:45:39.520Z,99542.94
2022-09-16T13:48:19.308Z,99527.59
2022-09-16T13:51:00.196Z,99494.56
2022-09-16T13:53:31.085Z,99464.22
2022-09-16T13:56:12.987Z,99458.50
2022-09-16T13:59:23.900Z,99448.41
2022-09-16T14:01:59.713Z,99430.44
2022-09-16T14:04:36.045Z,99421.03
2022-09-16T14:07:21.556Z,99410.41
2022-09-16T14:10:09.264Z,99404.84
2022-09-16T14:12:49.328Z,99389.78
2022-09-16T14:15:16.603Z,99378.19
2022-09-16T14:17:51.486Z,99351.66
2022-09-16T14:20:21.904Z,99355.25
2022-09-16T14:22:48.796Z,99332.81
2022-09-16T14:25:29.440Z,99317.69
2022-09-16T14:28:19.603Z,99320.41
2022-09-16T14:30:53.817Z,99322.81
2022-09-16T14:33:25.469Z,99300.03
2022-09-16T14:35:55.211Z,99288.13
2022-09-16T14:38:44.872Z,99289.88
2022-09-16T14:41:25.890Z,99285.94
2022-09-16T14:43:56.101Z,99279.63
2022-09-16T14:46:23.403Z,99279.09
2022-09-16T14:48:50.920Z,99279.44
2022-09-16T14:51:24.823Z,99274.22
2022-09-16T14:54:13.562Z,99265.84
2022-09-16T14:56:40.696Z,99272.53
2022-09-16T14:59:11.436Z,99268.59
2022-09-16T15:01:39.445Z,99267.72
2022-09-16T15:04:18.611Z,99266.34
2022-09-16T15:06:53.319Z,99262.59
2022-09-16T15:09:34.535Z,99253.53
2022-09-16T15:12:01.864Z,99250.47
2022-09-16T15:14:29.468Z,99250.59
2022-09-16T15:17:01.317Z,99252.16
2022-09-16T15:19:36.392Z,99263.09
2022-09-16T15:22:05.491Z,99261.38
2022-09-16T15:24:35.919Z,99272.09
2022-09-16T15:27:03.032Z,99265.88
2022-09-16T15:29:36.733Z,99270.81
2022-09-16T15:32:18.092Z,99273.28
2022-09-16T15:34:45.852Z,99295.78
2022-09-16T15:37:30.741Z,99327.22
2022-09-16T15:40:21.783Z,99329.56
2022-09-16T15:43:01.061Z,99355.03
2022-09-16T15:45:28.486Z,99380.56
2022-09-16T15:48:07.282Z,99402.78
2022-09-16T15:50:44.474Z,99411.44
2022-09-16T15:53:22.398Z,99420.31
2022-09-16T15:55:48.978Z,99430.75
2022-09-16T15:58:22.390Z,99445.13
2022-09-16T16:00:58.715Z,99464.06
2022-09-16T16:03:25.513Z,99469.88
2022-09-16T16:05:53.988Z,99496.56
2022-09-16T16:08:47.488Z,99524.44
2022-09-16T16:11:20.000Z,99518.78
2022-09-16T16:13:49.919Z,99535.88
2022-09-16T16:16:18.233Z,99548.19
2022-09-16T16:18:46.253Z,99560.34
2022-09-16T16:21:16.112Z,99561.38
2022-09-16T16:23:43.433Z,99578.63
2022-09-16T16:26:11.392Z,99583.25
2022-09-16T16:28:38.700Z,99601.03
2022-09-16T16:31:12.640Z,99609.94
2022-09-16T16:33:44.555Z,99622.25
2022-09-16T16:36:13.689Z,99642.41
2022-09-16T16:38:40.722Z,99650.75
2022-09-16T16:41:09.129Z,99653.00
2022-09-16T16:43:35.877Z,99669.66
2022-09-16T16:46:02.679Z,99672.88
2022-09-16T16:48:30.584Z,99687.69
2022-09-16T16:51:05.969Z,99697.75
2022-09-16T16:53:32.609Z,99703.81
2022-09-16T16:56:14.542Z,99706.50
2022-09-16T16:58:43.076Z,99712.59
2022-09-16T17:01:13.129Z,99721.44
2022-09-16T17:03:41.096Z,99720.25
2022-09-16T17:06:08.474Z,99731.56
2022-09-16T17:08:35.923Z,99720.59
2022-09-16T17:11:12.865Z,99723.34
2022-09-16T17:13:42.759Z,99717.00
2022-09-16T17:16:11.663Z,99716.34
2022-09-16T17:18:40.340Z,99714.88
2022-09-16T17:21:12.663Z,99704.50
2022-09-16T17:23:39.791Z,99706.22
2022-09-16T17:26:09.225Z,99703.31
2022-09-16T17:28:39.306Z,99695.97
2022-09-16T17:31:18.007Z,99703.31
2022-09-16T17:33:44.815Z,99695.56
2022-09-16T17:36:13.279Z,99691.88
2022-09-16T17:38:40.239Z,99684.66
2022-09-16T17:41:09.819Z,99670.72
2022-09-16T17:43:38.650Z,99670.00
2022-09-16T17:46:08.513Z,99672.03
2022-09-16T17:48:38.007Z,99662.13
2022-09-16T17:51:04.989Z,99655.81
2022-09-16T17:53:32.009Z,99653.09
2022-09-16T17:56:08.440Z,99655.63
2022-09-16T17:58:36.549Z,99655.34
2022-09-16T18:01:23.137Z,99657.06
2022-09-16T18:03:52.327Z,99662.50
2022-09-16T18:06:23.725Z,99658.38
2022-09-16T18:08:51.444Z,99663.03
2022-09-16T18:11:20.939Z,99659.97
2022-09-16T18:13:48.665Z,99674.81
2022-09-16T18:16:18.392Z,99673.13
2022-09-16T18:18:46.652Z,99678.03
2022-09-16T18:21:15.707Z,99680.06
2022-09-16T18:23:42.690Z,99686.00
2022-09-16T18:26:12.011Z,99679.38
2022-09-16T18:29:05.139Z,99693.50
2022-09-16T18:31:27.318Z,99697.75
2022-09-16T18:33:54.961Z,99700.47
2022-09-16T18:36:25.352Z,99698.53
2022-09-16T18:38:57.290Z,99697.00
2022-09-16T18:41:26.630Z,99710.25
2022-09-16T18:43:56.075Z,99715.44
2022-09-16T18:46:26.768Z,99714.16
2022-09-16T18:48:54.671Z,99716.25
2022-09-16T18:51:22.452Z,99724.91
2022-09-16T18:53:51.383Z,99720.28
2022-09-16T18:56:20.063Z,99735.97
2022-09-16T18:59:03.621Z,99741.22
2022-09-16T19:01:37.325Z,99746.72
2022-09-16T19:04:07.207Z,99748.63
2022-09-16T19:06:43.887Z,99750.47
2022-09-16T19:09:13.897Z,99744.94
2022-09-16T19:11:41.513Z,99747.44
2022-09-16T19:14:09.650Z,99733.69
2022-09-16T19:16:37.197Z,99727.00
2022-09-16T19:19:05.686Z,99731.91
2022-09-16T19:21:32.775Z,99724.91
2022-09-16T19:24:02.321Z,99724.34
2022-09-16T19:26:34.250Z,99729.00
2022-09-16T19:29:01.656Z,99714.91
2022-09-16T19:31:29.381Z,99706.88
2022-09-16T19:33:56.448Z,99696.59
2022-09-16T19:36:29.058Z,99705.25
2022-09-16T19:38:57.109Z,99710.84
2022-09-16T19:41:27.107Z,99710.13
2022-09-16T19:43:55.852Z,99707.72
2022-09-16T19:46:23.057Z,99702.16
2022-09-16T19:48:50.593Z,99696.16
2022-09-16T19:51:22.641Z,99699.06
2022-09-16T19:53:50.764Z,99696.31
2022-09-16T19:56:21.332Z,99697.34
2022-09-16T19:58:49.291Z,99695.94
2022-09-16T20:01:19.534Z,99690.22
2022-09-16T20:03:49.260Z,99685.34
2022-09-16T20:06:21.662Z,99674.75
2022-09-16T20:08:52.604Z,99685.94
2022-09-16T20:11:24.558Z,99678.19
2022-09-16T20:13:53.287Z,99679.63
2022-09-16T20:16:22.434Z,99672.59
2022-09-16T20:18:49.612Z,99680.19
2022-09-16T20:21:22.401Z,99674.63
2022-09-16T20:23:49.560Z,99681.06
2022-09-16T20:26:21.112Z,99676.75
2022-09-16T20:28:52.532Z,99684.94
2022-09-16T20:31:25.362Z,99678.66
2022-09-16T20:33:52.973Z,99679.66
2022-09-16T20:36:22.029Z,99684.84
2022-09-16T20:38:49.484Z,99681.41
2022-09-16T20:41:24.952Z,99680.25
2022-09-16T20:43:52.829Z,99668.81
2022-09-16T20:46:22.320Z,99665.78
2022-09-16T20:48:51.557Z,99672.38
2022-09-16T20:51:20.081Z,99668.94
2022-09-16T20:53:58.143Z,99670.66
2022-09-16T20:56:26.285Z,99668.22
2022-09-16T20:58:53.536Z,99654.06
2022-09-16T21:01:26.618Z,99657.94
2022-09-16T21:03:59.806Z,99655.69
2022-09-16T21:06:28.479Z,99655.41
2022-09-16T21:09:00.520Z,99657.59
2022-09-16T21:11:29.863Z,99658.31
2022-09-16T21:14:01.549Z,99656.47
2022-09-16T21:16:30.991Z,99653.91
2022-09-16T21:18:59.544Z,99655.59
2022-09-16T21:21:28.236Z,99649.94
2022-09-16T21:23:57.539Z,99651.94
2022-09-16T21:26:32.113Z,99649.47
2022-09-16T21:29:03.443Z,99652.50
2022-09-16T21:31:34.429Z,99649.53
2022-09-16T21:34:03.120Z,99681.06
2022-09-16T21:36:30.499Z,99680.34
2022-09-16T21:38:57.700Z,99671.78
2022-09-16T21:41:25.327Z,99661.91
2022-09-16T21:43:55.853Z,99645.56
2022-09-16T21:46:25.993Z,99642.28
2022-09-16T21:48:56.642Z,99649.88
2022-09-16T21:51:23.380Z,99647.88
2022-09-16T21:53:50.142Z,99641.84
2022-09-16T21:56:21.912Z,99595.78
2022-09-16T21:58:50.087Z,99588.75
2022-09-16T22:01:20.079Z,99580.91
2022-09-16T22:03:52.352Z,99580.06
2022-09-16T22:06:19.038Z,99571.59
2022-09-16T22:08:48.997Z,99556.69
2022-09-16T22:11:18.718Z,99553.50
2022-09-16T22:13:46.135Z,99553.97
2022-09-16T22:16:15.740Z,99537.06
2022-09-16T22:18:42.621Z,99539.78
2022-09-16T22:21:12.261Z,99534.47
2022-09-16T22:23:40.317Z,99523.88
2022-09-16T22:26:10.175Z,99520.69
2022-09-16T22:28:37.152Z,99519.66
2022-09-16T22:31:07.242Z,99515.53
2022-09-16T22:33:35.090Z,99501.50
2022-09-16T22:36:06.733Z,99491.31
2022-09-16T22:38:33.885Z,99493.47
2022-09-16T22:41:02.160Z,99493.47
2022-09-16T22:43:29.532Z,99494.28
2022-09-16T22:46:04.963Z,99499.41
2022-09-16T22:48:32.100Z,99499.88
2022-09-16T22:50:59.994Z,99502.91
2022-09-16T22:53:28.037Z,99456.50
2022-09-16T22:56:00.237Z,99458.81
2022-09-16T22:58:28.529Z,99438.94
2022-09-16T23:01:11.071Z,99443.75
2022-09-16T23:03:39.163Z,99437.84
2022-09-16T23:06:08.987Z,99433.72
2022-09-16T23:08:37.861Z,99435.28
2022-09-16T23:11:07.339Z,99433.56
2022-09-16T23:13:35.717Z,99428.28
2022-09-16T23:16:05.467Z,99430.16
2022-09-16T23:18:34.541Z,99426.25
2022-09-16T23:21:05.777Z,99423.00
2022-09-16T23:23:36.238Z,99424.53
2022-09-16T23:26:05.987Z,99425.72
2022-09-16T23:28:33.564Z,99421.81
2022-09-16T23:31:07.921Z,99410.81
2022-09-16T23:33:35.363Z,99400.75
2022-09-16T23:36:02.984Z,99405.56
2022-09-16T23:38:29.660Z,99403.56
2022-09-16T23:40:56.568Z,99405.84
2022-09-16T23:43:24.553Z,99407.41
2022-09-16T23:45:51.592Z,99396.34
2022-09-16T23:48:18.897Z,99398.94
2022-09-16T23:50:45.618Z,99409.50
2022-09-16T23:53:12.836Z,99402.88
2022-09-16T23:55:43.586Z,99403.25
2022-09-16T23:58:11.274Z,99406.69
